Time;durP1;ratioP1;P1;durP2;ratioP2;P2;SDS_P1;SDS_P2;PMS_P1;PMS_P2;Temp;Humidity;BMP_temperature;BMP_pressure;BME280_temperature;BME280_humidity;BME280_pressure;Samples;Min_cycle;Max_cycle;Signal;HPM_P1;HPM_P2
2023/02/17 00:01:01;;;;;;;49.15;38.53;;;2.60;99.90;;;;;;4235724;28;20277;-88
2023/02/17 00:03:22;;;;;;;48.75;39.97;;;2.70;99.90;;;;;;4242118;28;20043;-88
2023/02/17 00:05:42;;;;;;;46.90;39.20;;;2.60;99.90;;;;;;4256605;28;20324;-87
2023/02/17 00:08:01;;;;;;;46.35;39.58;;;2.70;99.90;;;;;;4256963;28;20097;-88
2023/02/17 00:10:21;;;;;;;47.78;39.83;;;2.50;99.90;;;;;;4241442;28;20074;-88
2023/02/17 00:12:41;;;;;;;53.55;43.22;;;2.50;99.90;;;;;;4256671;28;20045;-87
2023/02/17 00:15:00;;;;;;;58.00;46.90;;;2.40;99.90;;;;;;4256965;28;20268;-88
2023/02/17 00:17:20;;;;;;;55.88;45.13;;;2.20;99.90;;;;;;4241555;28;20107;-87
2023/02/17 00:19:40;;;;;;;52.13;39.60;;;2.20;99.90;;;;;;4241297;28;20330;-87
2023/02/17 00:22:01;;;;;;;51.72;40.20;;;2.20;99.90;;;;;;4241284;28;20365;-88
2023/02/17 00:24:22;;;;;;;43.28;34.20;;;2.10;99.90;;;;;;4256629;28;20111;-87
2023/02/17 00:26:42;;;;;;;44.53;36.35;;;1.90;99.90;;;;;;4256716;28;20387;-87
2023/02/17 00:29:02;;;;;;;43.25;36.70;;;1.90;99.90;;;;;;4256909;28;20238;-88
2023/02/17 00:31:23;;;;;;;50.08;38.67;;;1.90;99.90;;;;;;4256813;28;20083;-88
2023/02/17 00:33:43;;;;;;;44.85;38.95;;;1.90;99.90;;;;;;4241203;28;20107;-88
2023/02/17 00:36:13;;;;;;;45.10;39.15;;;2.00;99.90;;;;;;4256829;28;20306;-87
2023/02/17 00:38:33;;;;;;;46.75;37.58;;;2.00;99.90;;;;;;4240080;28;20047;-88
2023/02/17 00:40:53;;;;;;;46.78;36.53;;;2.00;99.90;;;;;;4239704;28;20092;-88
2023/02/17 00:43:13;;;;;;;50.85;41.40;;;2.00;99.90;;;;;;4256554;28;20042;-88
2023/02/17 00:45:32;;;;;;;49.97;41.33;;;1.80;99.90;;;;;;4256724;28;20049;-88
2023/02/17 00:47:52;;;;;;;52.22;44.45;;;1.80;99.90;;;;;;4256004;28;20046;-88
2023/02/17 00:50:13;;;;;;;55.65;49.97;;;1.70;99.90;;;;;;4256311;28;20061;-88
2023/02/17 00:52:32;;;;;;;54.58;48.78;;;1.50;99.90;;;;;;4241264;28;20073;-88
2023/02/17 00:54:52;;;;;;;54.45;48.67;;;1.50;99.90;;;;;;4241221;28;20083;-88
2023/02/17 00:57:12;;;;;;;51.45;46.13;;;1.30;99.90;;;;;;4256074;27;20107;-87
2023/02/17 00:59:32;;;;;;;47.33;42.53;;;1.40;99.90;;;;;;4256495;28;20058;-88
2023/02/17 01:01:51;;;;;;;48.58;40.53;;;1.60;99.90;;;;;;4240510;28;20058;-87
2023/02/17 01:04:12;;;;;;;48.03;41.75;;;1.50;99.90;;;;;;4240559;28;20066;-88
2023/02/17 01:06:35;;;;;;;53.08;42.17;;;1.40;99.90;;;;;;4255974;28;20364;-88
2023/02/17 01:08:55;;;;;;;57.75;44.80;;;1.30;99.90;;;;;;4256369;28;20138;-88
2023/02/17 01:11:21;;;;;;;52.42;41.75;;;1.40;99.90;;;;;;4240845;28;20078;-88
2023/02/17 01:13:41;;;;;;;55.75;43.58;;;1.40;99.90;;;;;;4255866;28;20216;-87
2023/02/17 01:16:01;;;;;;;56.90;44.08;;;1.40;99.90;;;;;;4239182;28;20038;-88
2023/02/17 01:18:23;;;;;;;55.38;42.15;;;1.30;99.90;;;;;;4241369;28;20093;-88
2023/02/17 01:20:43;;;;;;;50.92;42.33;;;1.30;99.90;;;;;;4243036;28;20086;-88
2023/02/17 01:23:04;;;;;;;50.88;42.22;;;1.30;99.90;;;;;;4254678;28;20098;-88
2023/02/17 01:25:23;;;;;;;43.33;36.17;;;1.20;99.90;;;;;;4238886;28;20050;-88
2023/02/17 01:27:43;;;;;;;42.38;36.88;;;1.20;99.90;;;;;;4242468;28;20103;-87
2023/02/17 01:30:05;;;;;;;50.03;39.35;;;1.30;99.90;;;;;;4254726;28;20047;-87
2023/02/17 01:32:25;;;;;;;43.78;37.67;;;1.30;99.90;;;;;;4254832;28;20046;-88
2023/02/17 01:34:44;;;;;;;50.13;41.30;;;1.40;99.90;;;;;;4240578;28;20057;-87
2023/02/17 01:37:04;;;;;;;47.03;38.08;;;1.40;99.90;;;;;;4231949;28;20115;-88
2023/02/17 01:39:25;;;;;;;47.10;39.55;;;1.30;99.90;;;;;;4255998;28;20111;-88
2023/02/17 01:41:45;;;;;;;48.83;43.63;;;1.30;99.90;;;;;;4255701;28;20073;-88
2023/02/17 01:44:06;;;;;;;53.35;47.75;;;1.20;99.90;;;;;;4256073;28;20234;-88
2023/02/17 01:46:26;;;;;;;56.38;50.80;;;1.00;99.90;;;;;;4243741;28;20055;-88
2023/02/17 01:48:49;;;;;;;59.92;53.85;;;0.70;99.90;;;;;;4240335;28;20076;-88
2023/02/17 01:51:24;;;;;;;63.72;57.42;;;0.50;99.90;;;;;;4256051;28;20080;-87
2023/02/17 01:53:54;;;;;;;66.63;59.33;;;0.30;99.90;;;;;;4254709;28;20070;-88
2023/02/17 01:56:16;;;;;;;69.55;62.15;;;0.40;99.90;;;;;;4239854;28;20310;-88
2023/02/17 01:58:40;;;;;;;66.95;59.95;;;0.50;99.90;;;;;;4240514;28;20253;-87
2023/02/17 02:01:03;;;;;;;57.63;51.88;;;0.50;99.90;;;;;;4240886;28;20051;-88
2023/02/17 02:03:23;;;;;;;65.45;58.45;;;0.50;99.90;;;;;;4255763;28;20071;-88
2023/02/17 02:05:43;;;;;;;61.42;55.05;;;0.50;99.90;;;;;;4255724;28;20390;-87
2023/02/17 02:08:04;;;;;;;64.47;54.28;;;0.50;99.90;;;;;;4255340;27;20087;-88
2023/02/17 02:10:24;;;;;;;60.08;53.47;;;0.50;99.90;;;;;;4243520;28;20416;-88
2023/02/17 02:12:45;;;;;;;66.72;51.45;;;0.50;99.90;;;;;;4258932;28;20046;-87
2023/02/17 02:15:21;;;;;;;63.45;46.53;;;0.40;99.90;;;;;;4257646;28;20065;-87
2023/02/17 02:18:13;;;;;;;50.88;42.72;;;0.30;99.90;;;;;;4258128;28;20430;-87
2023/02/17 02:20:56;;;;;;;55.65;42.60;;;0.30;99.90;;;;;;4258288;28;20331;-87
2023/02/17 02:23:57;;;;;;;58.17;42.83;;;0.30;99.90;;;;;;4243031;28;20400;-87
2023/02/17 02:26:54;;;;;;;47.10;41.38;;;0.30;99.90;;;;;;4241743;28;20296;-87
2023/02/17 02:29:52;;;;;;;47.25;41.47;;;0.30;99.90;;;;;;4242316;28;20082;-87
2023/02/17 02:32:49;;;;;;;46.38;39.70;;;0.30;99.90;;;;;;4258219;28;20084;-87
2023/02/17 02:35:24;;;;;;;63.15;54.58;;;0.30;99.90;;;;;;4258040;28;20267;-87
2023/02/17 02:38:03;;;;;;;54.78;46.13;;;0.30;99.90;;;;;;4242208;28;20055;-87
2023/02/17 02:40:39;;;;;;;58.58;52.75;;;0.30;99.90;;;;;;4256455;28;20076;-87
2023/02/17 02:43:01;;;;;;;60.10;54.47;;;0.30;99.90;;;;;;4256997;28;20050;-88
2023/02/17 02:45:22;;;;;;;59.08;53.03;;;0.40;99.90;;;;;;4257956;28;20042;-87
2023/02/17 02:47:53;;;;;;;60.60;54.33;;;0.40;99.90;;;;;;4247267;28;20393;-88
2023/02/17 02:50:19;;;;;;;59.63;53.88;;;0.30;99.90;;;;;;4242743;28;20046;-87
2023/02/17 02:53:07;;;;;;;59.72;53.92;;;0.20;99.90;;;;;;4232373;28;20055;-87
2023/02/17 02:55:45;;;;;;;62.97;57.10;;;0.30;99.90;;;;;;4256906;28;20077;-87
2023/02/17 02:58:24;;;;;;;58.40;52.55;;;0.20;99.90;;;;;;4242493;28;20043;-88
2023/02/17 03:01:06;;;;;;;60.00;54.08;;;0.10;99.90;;;;;;4256842;28;20073;-88
2023/02/17 03:03:40;;;;;;;51.78;46.33;;;0.20;99.90;;;;;;4257425;28;20402;-87
2023/02/17 03:06:26;;;;;;;48.13;42.28;;;0.20;99.90;;;;;;4232928;28;20042;-88
2023/02/17 03:08:55;;;;;;;57.35;51.40;;;0.10;99.90;;;;;;4256364;28;20125;-87
2023/02/17 03:11:31;;;;;;;56.22;50.63;;;0.10;99.90;;;;;;4241019;28;20074;-88
2023/02/17 03:13:50;;;;;;;49.58;44.38;;;0.00;99.90;;;;;;4241317;28;20062;-87
2023/02/17 03:16:13;;;;;;;50.45;43.20;;;0.10;99.90;;;;;;4257434;28;20093;-88
2023/02/17 03:18:34;;;;;;;54.30;48.92;;;0.20;99.90;;;;;;4241377;28;20703;-88
2023/02/17 03:21:01;;;;;;;54.83;48.08;;;0.20;99.90;;;;;;4232141;28;20055;-87
2023/02/17 03:23:21;;;;;;;49.88;44.58;;;0.10;99.90;;;;;;4257687;28;20080;-88
2023/02/17 03:25:42;;;;;;;57.75;52.05;;;0.20;99.90;;;;;;4242394;28;20217;-88
2023/02/17 03:28:02;;;;;;;53.63;48.05;;;0.20;99.90;;;;;;4242139;28;20166;-88
2023/02/17 03:30:22;;;;;;;49.17;44.08;;;0.10;99.90;;;;;;4243251;28;20046;-88
2023/02/17 03:32:42;;;;;;;45.55;40.63;;;0.30;99.90;;;;;;4257556;28;20279;-88
2023/02/17 03:35:03;;;;;;;44.13;38.10;;;0.20;99.90;;;;;;4256477;28;20041;-88
2023/02/17 03:37:22;;;;;;;43.92;37.45;;;0.30;99.90;;;;;;4241756;28;20068;-88
2023/02/17 03:39:42;;;;;;;42.22;34.78;;;0.30;99.90;;;;;;4257486;28;20063;-88
2023/02/17 03:42:02;;;;;;;47.45;41.53;;;0.40;99.90;;;;;;4236495;28;20051;-88
2023/02/17 03:44:22;;;;;;;50.95;45.55;;;0.30;99.90;;;;;;4242325;28;20039;-88
2023/02/17 03:46:43;;;;;;;56.92;51.58;;;0.20;99.90;;;;;;4241451;28;20059;-88
2023/02/17 03:49:03;;;;;;;53.20;48.30;;;0.20;99.90;;;;;;4241374;28;20073;-88
2023/02/17 03:51:23;;;;;;;48.63;44.47;;;0.20;99.90;;;;;;4257381;28;20084;-88
2023/02/17 03:53:44;;;;;;;51.22;46.92;;;0.20;99.90;;;;;;4241569;28;20054;-88
2023/02/17 03:56:04;;;;;;;44.47;41.22;;;0.20;99.90;;;;;;4257188;28;20385;-88
2023/02/17 03:58:24;;;;;;;47.38;43.63;;;0.20;99.90;;;;;;4256608;28;20034;-88
2023/02/17 04:00:44;;;;;;;49.22;45.08;;;0.10;99.90;;;;;;4240995;28;20085;-88
2023/02/17 04:03:03;;;;;;;49.72;45.65;;;0.10;99.90;;;;;;4256215;28;20050;-88
2023/02/17 04:05:23;;;;;;;45.72;42.35;;;0.10;99.90;;;;;;4240030;28;20062;-88
2023/02/17 04:07:43;;;;;;;49.03;45.22;;;0.10;99.90;;;;;;4240644;28;20418;-88
2023/02/17 04:10:03;;;;;;;53.15;48.95;;;0.10;99.90;;;;;;4255856;28;20268;-88
2023/02/17 04:12:25;;;;;;;54.90;50.05;;;0.10;99.90;;;;;;4241072;28;20279;-88
2023/02/17 04:14:45;;;;;;;53.22;48.40;;;0.00;99.90;;;;;;4240839;28;20085;-88
2023/02/17 04:17:05;;;;;;;58.55;52.83;;;-0.10;99.90;;;;;;4256121;28;20080;-88
2023/02/17 04:19:25;;;;;;;57.83;52.30;;;-0.10;99.90;;;;;;4239667;28;20107;-88
2023/02/17 04:21:45;;;;;;;52.15;47.63;;;0.00;99.90;;;;;;4255637;28;20054;-88
2023/02/17 04:24:05;;;;;;;49.25;45.15;;;0.10;99.90;;;;;;4255946;28;20077;-88
2023/02/17 04:26:25;;;;;;;49.38;45.25;;;0.20;99.90;;;;;;4255822;28;20106;-88
2023/02/17 04:28:45;;;;;;;53.17;48.72;;;0.10;99.90;;;;;;4256068;28;20047;-88
2023/02/17 04:31:05;;;;;;;50.55;46.72;;;0.10;99.90;;;;;;4256317;27;20054;-88
2023/02/17 04:33:26;;;;;;;57.30;52.45;;;0.00;99.90;;;;;;4235046;28;20401;-88
2023/02/17 04:35:46;;;;;;;57.83;52.92;;;-0.10;99.90;;;;;;4256722;28;20058;-87
2023/02/17 04:38:09;;;;;;;59.95;54.78;;;-0.20;99.90;;;;;;4242993;28;20057;-88
2023/02/17 04:40:29;;;;;;;59.33;54.70;;;-0.20;99.90;;;;;;4255366;28;20103;-88
2023/02/17 04:42:49;;;;;;;61.15;55.85;;;-0.10;99.90;;;;;;4239927;28;20357;-88
2023/02/17 04:45:10;;;;;;;59.20;54.35;;;-0.10;99.90;;;;;;4241295;28;20073;-88
2023/02/17 04:47:30;;;;;;;60.30;55.22;;;0.00;99.90;;;;;;4256571;28;20085;-88
2023/02/17 04:49:50;;;;;;;60.47;55.45;;;0.10;99.90;;;;;;4256436;28;20349;-88
2023/02/17 04:52:10;;;;;;;57.33;52.53;;;0.10;99.90;;;;;;4241177;28;20047;-88
2023/02/17 04:54:30;;;;;;;62.10;56.50;;;0.10;99.90;;;;;;4256296;28;20056;-87
2023/02/17 04:56:50;;;;;;;60.75;55.97;;;0.00;99.90;;;;;;4240723;28;20130;-88
2023/02/17 04:59:09;;;;;;;54.53;49.45;;;0.10;99.90;;;;;;4256401;28;20045;-88
2023/02/17 05:01:29;;;;;;;62.03;56.20;;;0.10;99.90;;;;;;4241028;28;20062;-88
2023/02/17 05:03:49;;;;;;;58.08;52.78;;;0.20;99.90;;;;;;4241068;28;20050;-88
2023/02/17 05:06:09;;;;;;;55.28;50.08;;;0.20;99.90;;;;;;4240955;28;20057;-88
2023/02/17 05:08:29;;;;;;;57.30;51.92;;;0.40;99.90;;;;;;4256473;28;20054;-88
2023/02/17 05:10:51;;;;;;;53.55;48.95;;;0.30;99.90;;;;;;4241044;28;20046;-88
2023/02/17 05:13:11;;;;;;;51.58;47.00;;;0.30;99.90;;;;;;4235344;28;20059;-87
2023/02/17 05:15:31;;;;;;;57.35;52.40;;;0.40;99.90;;;;;;4240036;28;20159;-88
2023/02/17 05:17:54;;;;;;;52.15;47.65;;;0.50;99.90;;;;;;4255570;28;20074;-88
2023/02/17 05:20:14;;;;;;;51.63;47.25;;;0.40;99.90;;;;;;4240021;28;20051;-88
2023/02/17 05:22:34;;;;;;;44.78;40.83;;;0.50;99.90;;;;;;4240783;28;20057;-88
2023/02/17 05:24:53;;;;;;;47.03;42.53;;;0.60;99.90;;;;;;4240067;28;20235;-88
2023/02/17 05:27:13;;;;;;;48.10;43.80;;;0.70;99.90;;;;;;4237542;28;20062;-88
2023/02/17 05:29:33;;;;;;;46.45;42.33;;;0.80;99.90;;;;;;4255554;28;20143;-88
2023/02/17 05:31:54;;;;;;;42.20;38.10;;;0.80;99.90;;;;;;4255769;28;20046;-88
2023/02/17 05:34:14;;;;;;;48.30;44.80;;;0.60;99.90;;;;;;4256097;28;20057;-88
2023/02/17 05:36:33;;;;;;;52.63;48.80;;;0.40;99.90;;;;;;4256167;28;20103;-88
2023/02/17 05:38:53;;;;;;;52.67;48.72;;;0.20;99.90;;;;;;4256124;28;20046;-88
2023/02/17 05:41:14;;;;;;;52.30;48.33;;;0.30;99.90;;;;;;4255871;28;20061;-88
2023/02/17 05:43:34;;;;;;;51.65;47.50;;;0.30;99.90;;;;;;4240967;28;20089;-88
2023/02/17 05:45:53;;;;;;;59.17;54.45;;;0.20;99.90;;;;;;4242731;28;20239;-88
2023/02/17 05:48:13;;;;;;;62.47;57.15;;;0.10;99.90;;;;;;4243161;28;20094;-87
2023/02/17 05:50:33;;;;;;;60.50;55.60;;;0.10;99.90;;;;;;4259005;28;20439;-87
2023/02/17 05:52:54;;;;;;;59.70;54.85;;;0.00;99.90;;;;;;4242017;28;20054;-87
2023/02/17 05:55:13;;;;;;;59.35;54.80;;;0.00;99.90;;;;;;4241712;28;20393;-88
2023/02/17 05:57:33;;;;;;;60.78;55.70;;;0.00;99.90;;;;;;4244624;28;20430;-88
2023/02/17 05:59:53;;;;;;;55.70;51.45;;;0.10;99.90;;;;;;4241280;28;20046;-87
2023/02/17 06:02:13;;;;;;;53.75;49.75;;;0.10;99.90;;;;;;4240887;28;20093;-87
2023/02/17 06:04:33;;;;;;;54.20;49.88;;;0.20;99.90;;;;;;4258781;28;20103;-88
2023/02/17 06:06:53;;;;;;;57.63;52.45;;;0.40;99.90;;;;;;4256504;28;20065;-87
2023/02/17 06:09:13;;;;;;;56.83;51.50;;;0.40;99.90;;;;;;4258879;28;20406;-88
2023/02/17 06:11:33;;;;;;;51.60;46.47;;;0.50;99.90;;;;;;4242456;28;20130;-88
2023/02/17 06:13:53;;;;;;;58.72;53.25;;;0.50;99.90;;;;;;4256499;28;20069;-88
2023/02/17 06:16:14;;;;;;;53.70;49.15;;;0.60;99.90;;;;;;4241178;28;20078;-88
2023/02/17 06:18:34;;;;;;;53.42;48.67;;;0.60;99.90;;;;;;4257980;28;20038;-88
2023/02/17 06:20:56;;;;;;;58.72;52.78;;;0.70;99.90;;;;;;4241426;28;20226;-88
2023/02/17 06:23:15;;;;;;;60.17;54.55;;;0.80;99.90;;;;;;4241733;28;20430;-88
2023/02/17 06:25:36;;;;;;;60.22;54.83;;;0.70;99.90;;;;;;4258340;28;20061;-88
2023/02/17 06:27:56;;;;;;;62.45;56.20;;;0.60;99.90;;;;;;4243064;28;20050;-88
2023/02/17 06:30:16;;;;;;;62.75;56.67;;;0.60;99.90;;;;;;4242563;28;20047;-88
2023/02/17 06:32:36;;;;;;;61.42;55.55;;;0.70;99.90;;;;;;4258331;28;20165;-88
2023/02/17 06:34:56;;;;;;;59.17;53.25;;;0.70;99.90;;;;;;4242930;28;20273;-88
2023/02/17 06:37:15;;;;;;;59.15;52.80;;;0.70;99.90;;;;;;4258177;28;20082;-88
2023/02/17 06:39:35;;;;;;;60.50;54.33;;;0.80;99.90;;;;;;4258260;28;20115;-88
2023/02/17 06:41:55;;;;;;;61.65;56.10;;;0.70;99.90;;;;;;4242632;28;20066;-88
2023/02/17 06:44:15;;;;;;;61.50;55.58;;;0.70;99.90;;;;;;4242561;28;20078;-88
2023/02/17 06:46:35;;;;;;;63.58;58.10;;;0.70;99.90;;;;;;4242413;28;20400;-88
2023/02/17 06:48:55;;;;;;;58.33;53.15;;;0.70;99.90;;;;;;4242713;28;20050;-88
2023/02/17 06:51:15;;;;;;;58.88;53.90;;;0.70;99.90;;;;;;4242677;28;20093;-88
2023/02/17 06:53:35;;;;;;;60.97;55.33;;;0.80;99.90;;;;;;4242712;28;20043;-88
2023/02/17 06:55:55;;;;;;;62.78;57.05;;;0.90;99.90;;;;;;4241760;28;20061;-88
2023/02/17 06:58:15;;;;;;;51.72;47.05;;;0.90;99.90;;;;;;4257361;28;20069;-88
2023/02/17 07:00:35;;;;;;;54.58;49.70;;;0.90;99.90;;;;;;4258107;28;20093;-88
2023/02/17 07:02:55;;;;;;;58.42;53.10;;;0.90;99.90;;;;;;4257017;28;20392;-89
2023/02/17 07:05:15;;;;;;;56.97;51.85;;;0.90;99.90;;;;;;4256978;28;20081;-88
2023/02/17 07:07:36;;;;;;;51.17;46.20;;;1.00;99.90;;;;;;4241544;28;20047;-89
2023/02/17 07:09:56;;;;;;;58.33;52.22;;;1.00;99.90;;;;;;4257766;28;20042;-88
2023/02/17 07:12:16;;;;;;;89.85;66.38;;;1.10;99.90;;;;;;4242403;28;20126;-88
2023/02/17 07:14:37;;;;;;;81.63;59.28;;;1.10;99.90;;;;;;4257885;28;20089;-89
2023/02/17 07:16:57;;;;;;;79.50;56.08;;;1.20;99.90;;;;;;4240304;28;20294;-89
2023/02/17 07:19:17;;;;;;;67.30;49.50;;;1.30;99.90;;;;;;4256934;28;20041;-89
2023/02/17 07:21:37;;;;;;;63.85;49.15;;;1.30;99.90;;;;;;4257819;28;20277;-89
2023/02/17 07:23:56;;;;;;;76.85;51.55;;;1.30;99.90;;;;;;4256518;28;20265;-88
2023/02/17 07:26:16;;;;;;;102.22;68.50;;;1.40;99.90;;;;;;4240823;28;20066;-89
2023/02/17 07:28:38;;;;;;;70.60;51.38;;;1.30;99.90;;;;;;4236030;28;20043;-89
2023/02/17 07:31:07;;;;;;;61.78;48.15;;;1.40;99.90;;;;;;4256279;28;20085;-88
2023/02/17 07:33:27;;;;;;;51.75;43.10;;;1.40;99.90;;;;;;4257379;28;20383;-88
2023/02/17 07:35:47;;;;;;;55.60;42.55;;;1.40;99.90;;;;;;4257206;28;20053;-88
2023/02/17 07:38:07;;;;;;;65.28;51.78;;;1.60;99.90;;;;;;4257594;28;20358;-88
2023/02/17 07:40:27;;;;;;;58.75;46.78;;;1.80;99.90;;;;;;4242934;28;20054;-89
2023/02/17 07:42:47;;;;;;;54.38;43.63;;;2.10;99.90;;;;;;4256855;28;20264;-89
2023/02/17 07:45:07;;;;;;;48.42;41.38;;;2.30;99.90;;;;;;4242127;28;20066;-89
2023/02/17 07:47:27;;;;;;;40.10;35.72;;;2.40;99.90;;;;;;4256857;28;20380;-89
2023/02/17 07:49:47;;;;;;;60.40;44.55;;;2.40;99.90;;;;;;4241936;28;20042;-88
2023/02/17 07:52:07;;;;;;;57.67;44.78;;;2.40;99.90;;;;;;4241989;28;20076;-89
2023/02/17 07:54:27;;;;;;;52.63;42.25;;;2.40;99.90;;;;;;4238486;28;20058;-89
2023/02/17 07:56:47;;;;;;;67.10;47.33;;;2.40;99.90;;;;;;4240848;28;20077;-88
2023/02/17 07:59:11;;;;;;;71.72;50.75;;;2.20;99.90;;;;;;4241992;28;20105;-89
2023/02/17 08:01:31;;;;;;;48.05;41.08;;;2.20;99.90;;;;;;4239316;28;20074;-89
2023/02/17 08:03:51;;;;;;;50.00;41.38;;;2.10;99.90;;;;;;4256586;28;20038;-89
2023/02/17 08:06:14;;;;;;;54.45;41.72;;;2.20;99.90;;;;;;4255608;27;20042;-88
2023/02/17 08:13:55;;;;;;;50.30;38.72;;;2.40;99.90;;;;;;4255692;28;20085;-90
2023/02/17 08:16:14;;;;;;;60.13;40.92;;;2.40;99.90;;;;;;4255435;28;20383;-90
2023/02/17 08:18:34;;;;;;;52.40;39.75;;;2.70;99.90;;;;;;4243445;28;20380;-89
2023/02/17 08:20:55;;;;;;;54.67;38.33;;;2.80;99.90;;;;;;4244548;28;20054;-90
2023/02/17 08:23:15;;;;;;;50.80;40.15;;;2.80;99.90;;;;;;4254727;28;20041;-89
2023/02/17 08:25:36;;;;;;;50.17;36.60;;;2.80;99.90;;;;;;4241540;28;20058;-90
2023/02/17 08:27:56;;;;;;;55.75;42.08;;;2.90;99.90;;;;;;4241519;28;20058;-90
2023/02/17 08:30:16;;;;;;;53.15;42.08;;;3.10;99.90;;;;;;4256903;28;20100;-90
2023/02/17 08:32:37;;;;;;;59.90;46.88;;;3.20;99.90;;;;;;4241181;28;20055;-89
2023/02/17 08:34:57;;;;;;;54.35;42.42;;;3.20;99.90;;;;;;4240766;28;20054;-89
2023/02/17 08:37:17;;;;;;;46.17;37.90;;;3.30;99.90;;;;;;4244481;28;20243;-90
2023/02/17 08:39:37;;;;;;;51.63;40.58;;;3.40;99.90;;;;;;4256687;28;20069;-89
2023/02/17 08:41:57;;;;;;;143.43;83.60;;;3.60;99.90;;;;;;4256210;28;20332;-90
2023/02/17 08:44:19;;;;;;;119.30;68.40;;;3.80;99.90;;;;;;4243251;28;20042;-89
2023/02/17 08:46:40;;;;;;;63.28;47.40;;;3.90;99.90;;;;;;4256289;28;20077;-89
2023/02/17 08:49:00;;;;;;;55.00;43.65;;;4.00;99.90;;;;;;4241259;28;20117;-90
2023/02/17 08:51:24;;;;;;;54.30;40.92;;;4.10;99.90;;;;;;4241253;28;20101;-90
2023/02/17 08:53:45;;;;;;;53.53;41.63;;;4.20;99.90;;;;;;4241202;28;20358;-90
2023/02/17 08:56:06;;;;;;;50.28;39.05;;;4.30;99.90;;;;;;4256321;28;20057;-89
2023/02/17 08:58:26;;;;;;;59.65;41.80;;;4.60;99.90;;;;;;4241305;28;20059;-90
2023/02/17 09:00:46;;;;;;;46.30;34.97;;;4.80;99.90;;;;;;4241231;28;20043;-90
2023/02/17 09:03:06;;;;;;;52.63;36.40;;;4.80;99.90;;;;;;4256417;28;20058;-89
2023/02/17 09:05:26;;;;;;;46.05;38.65;;;5.00;99.90;;;;;;4237840;28;20074;-89
2023/02/17 09:07:46;;;;;;;44.90;35.53;;;5.20;99.90;;;;;;4256152;28;20057;-89
2023/02/17 09:10:09;;;;;;;39.58;32.88;;;5.30;99.90;;;;;;4240851;28;20166;-90
2023/02/17 09:12:29;;;;;;;49.88;37.35;;;5.40;99.90;;;;;;4256417;28;20081;-89
2023/02/17 09:14:49;;;;;;;44.80;36.25;;;5.60;99.90;;;;;;4240788;28;20282;-90
2023/02/17 09:17:09;;;;;;;44.50;35.92;;;5.90;99.90;;;;;;4240825;27;20098;-90
2023/02/17 09:19:29;;;;;;;43.00;36.17;;;5.90;99.90;;;;;;4258990;28;20046;-90
2023/02/17 09:21:49;;;;;;;39.17;34.40;;;6.10;99.90;;;;;;4245931;28;20054;-90
2023/02/17 09:24:09;;;;;;;43.70;32.72;;;6.30;99.90;;;;;;4259330;28;20375;-90
2023/02/17 09:26:29;;;;;;;39.15;34.95;;;6.30;99.90;;;;;;4244406;28;20047;-90
2023/02/17 09:28:49;;;;;;;26.42;23.80;;;6.70;99.90;;;;;;4243947;28;20062;-91
2023/02/17 09:31:24;;;;;;;25.38;22.98;;;6.90;99.90;;;;;;4259273;28;20041;-92
2023/02/17 09:33:46;;;;;;;23.08;20.98;;;7.30;99.90;;;;;;4258898;28;20047;-91
2023/02/17 09:36:09;;;;;;;21.70;19.90;;;7.50;99.90;;;;;;4243398;28;20259;-90
2023/02/17 09:38:29;;;;;;;23.05;20.80;;;7.50;99.90;;;;;;4259178;28;20073;-91
2023/02/17 09:40:49;;;;;;;23.60;21.20;;;7.60;99.90;;;;;;4243484;28;20050;-91
2023/02/17 09:43:15;;;;;;;22.58;20.10;;;7.60;99.90;;;;;;4258658;28;20368;-90
2023/02/17 09:45:35;;;;;;;21.10;18.90;;;7.90;99.90;;;;;;4259039;28;20256;-90
2023/02/17 09:48:00;;;;;;;16.77;15.55;;;8.20;99.90;;;;;;4243551;28;20065;-91
2023/02/17 09:50:44;;;;;;;13.73;12.70;;;8.40;99.90;;;;;;4258968;28;20065;-92
2023/02/17 09:53:21;;;;;;;15.73;14.70;;;8.30;99.90;;;;;;4258827;28;20261;-91
2023/02/17 09:55:46;;;;;;;13.38;12.70;;;8.60;99.90;;;;;;4241829;28;20039;-91
2023/02/17 09:58:14;;;;;;;14.35;13.52;;;8.50;99.90;;;;;;4244986;28;20299;-90
2023/02/17 10:00:40;;;;;;;12.73;12.13;;;8.90;99.90;;;;;;4258837;28;20084;-91
2023/02/17 10:03:15;;;;;;;12.18;11.70;;;8.90;99.90;;;;;;4258647;28;20053;-91
2023/02/17 10:05:52;;;;;;;13.30;12.18;;;9.30;99.90;;;;;;4243520;28;20080;-91
2023/02/17 10:08:24;;;;;;;13.20;12.50;;;9.10;99.90;;;;;;4235301;28;20062;-91
2023/02/17 10:11:02;;;;;;;11.65;10.98;;;9.10;99.90;;;;;;4243271;28;20285;-91
2023/02/17 10:13:24;;;;;;;10.68;10.07;;;9.40;99.90;;;;;;4242877;28;20085;-91
2023/02/17 10:15:49;;;;;;;11.05;10.35;;;9.90;99.90;;;;;;4243103;28;20077;-92
2023/02/17 10:18:24;;;;;;;10.57;10.10;;;10.10;99.90;;;;;;4243095;28;20058;-91
2023/02/17 10:21:16;;;;;;;10.93;10.10;;;10.20;99.90;;;;;;4256879;28;20103;-92
2023/02/17 10:23:36;;;;;;;10.82;10.38;;;10.00;99.90;;;;;;4257588;28;20373;-91
2023/02/17 10:26:05;;;;;;;10.75;10.30;;;10.30;99.90;;;;;;4242136;28;20074;-91
2023/02/17 10:28:43;;;;;;;9.32;8.93;;;10.30;99.90;;;;;;4242822;28;20059;-90
2023/02/17 10:31:17;;;;;;;12.32;11.68;;;10.20;99.90;;;;;;4258377;28;20045;-90
2023/02/17 10:34:02;;;;;;;10.55;10.15;;;10.70;99.90;;;;;;4257428;28;20046;-90
2023/02/17 10:37:00;;;;;;;9.48;9.23;;;10.80;99.90;;;;;;4243165;28;20099;-90
2023/02/17 10:39:49;;;;;;;10.13;9.73;;;10.80;99.90;;;;;;4239964;28;20058;-90
2023/02/17 10:42:38;;;;;;;10.32;9.73;;;10.90;99.90;;;;;;4245554;28;20050;-90
2023/02/17 10:45:03;;;;;;;10.82;10.35;;;10.60;99.90;;;;;;4241901;28;20043;-90
2023/02/17 10:47:23;;;;;;;9.65;9.32;;;10.80;99.90;;;;;;4258287;28;20106;-90
2023/02/17 10:49:48;;;;;;;9.38;8.77;;;11.10;99.90;;;;;;4258151;28;20081;-90
2023/02/17 10:52:21;;;;;;;10.23;9.65;;;11.40;99.90;;;;;;4240711;28;20081;-90
2023/02/17 10:54:58;;;;;;;7.68;7.57;;;12.00;99.90;;;;;;4245828;28;20057;-90
2023/02/17 10:57:20;;;;;;;8.25;8.05;;;11.90;99.90;;;;;;4258229;28;20295;-90
2023/02/17 10:59:43;;;;;;;8.30;7.65;;;12.00;99.90;;;;;;4240682;28;20050;-90
2023/02/17 11:02:29;;;;;;;8.85;7.72;;;12.00;99.90;;;;;;4243797;28;20393;-90
2023/02/17 11:04:53;;;;;;;6.85;6.47;;;12.70;99.90;;;;;;4240773;28;20038;-90
2023/02/17 11:07:16;;;;;;;5.93;5.63;;;12.40;99.90;;;;;;4256934;28;20042;-90
2023/02/17 11:09:43;;;;;;;6.03;5.72;;;12.70;99.70;;;;;;4241992;28;20405;-89
2023/02/17 11:12:11;;;;;;;5.57;5.47;;;13.30;99.90;;;;;;4244272;28;20042;-90
2023/02/17 11:14:34;;;;;;;5.38;5.28;;;13.40;99.30;;;;;;4244283;28;20466;-90
2023/02/17 11:17:13;;;;;;;4.72;4.63;;;13.90;99.10;;;;;;4256624;28;20080;-89
2023/02/17 11:19:36;;;;;;;3.08;2.97;;;14.60;99.10;;;;;;4242395;28;20062;-90
2023/02/17 11:21:58;;;;;;;3.55;3.45;;;14.20;97.00;;;;;;4241257;28;20074;-90
2023/02/17 11:24:18;;;;;;;4.35;4.15;;;13.90;96.70;;;;;;4241498;28;20457;-90
2023/02/17 11:26:38;;;;;;;5.75;5.65;;;13.90;97.80;;;;;;4247684;28;20093;-89
2023/02/17 11:29:17;;;;;;;5.93;5.82;;;14.10;99.90;;;;;;4257724;28;20056;-90
2023/02/17 11:31:37;;;;;;;5.55;5.25;;;13.70;99.20;;;;;;4241756;28;20238;-90
2023/02/17 11:33:57;;;;;;;4.10;4.00;;;13.60;97.10;;;;;;4243408;28;20050;-91
2023/02/17 11:36:26;;;;;;;3.35;3.30;;;13.40;97.40;;;;;;4241454;28;20082;-91
2023/02/17 11:38:46;;;;;;;2.72;2.50;;;14.30;97.80;;;;;;4240828;28;20110;-90
2023/02/17 11:41:07;;;;;;;3.70;3.50;;;13.80;97.20;;;;;;4243874;28;20258;-91
2023/02/17 11:43:28;;;;;;;3.42;3.33;;;13.90;96.40;;;;;;4257250;28;20062;-91
2023/02/17 11:45:52;;;;;;;4.40;3.42;;;14.40;97.10;;;;;;4241640;28;20412;-90
2023/02/17 11:48:15;;;;;;;3.92;3.83;;;14.60;97.70;;;;;;4256962;28;20084;-92
2023/02/17 11:50:47;;;;;;;4.85;4.65;;;14.50;96.30;;;;;;4257156;28;20085;-91
2023/02/17 11:53:41;;;;;;;15.95;13.73;;;14.30;96.40;;;;;;4236518;28;20097;-92
2023/02/17 11:56:06;;;;;;;4.80;4.70;;;13.70;96.20;;;;;;4256968;27;20311;-92
2023/02/17 11:58:45;;;;;;;4.68;4.57;;;13.10;97.20;;;;;;4241368;28;20043;-91
2023/02/17 12:01:20;;;;;;;4.40;4.30;;;12.90;97.50;;;;;;4241300;28;20101;-92
2023/02/17 12:03:57;;;;;;;4.63;3.60;;;12.70;97.80;;;;;;4257252;28;20086;-92
2023/02/17 12:06:43;;;;;;;4.05;3.95;;;12.40;97.70;;;;;;4255517;28;20046;-91
2023/02/17 12:09:18;;;;;;;4.53;4.30;;;12.30;98.30;;;;;;4257291;28;20110;-92
2023/02/17 12:11:47;;;;;;;9.00;8.50;;;12.40;98.20;;;;;;4241622;28;20061;-92
2023/02/17 12:14:28;;;;;;;4.70;4.53;;;12.40;98.20;;;;;;4245697;28;20043;-91
2023/02/17 12:16:59;;;;;;;;;;;12.70;98.40;;;;;;4257326;28;20103;-91
2023/02/17 12:19:58;;;;;;;4.38;4.28;;;12.60;97.70;;;;;;4242060;28;19931;-91
2023/02/17 12:22:34;;;;;;;4.10;4.00;;;12.60;98.10;;;;;;4185263;28;20058;-92
2023/02/17 12:25:13;;;;;;;5.20;5.00;;;12.40;98.20;;;;;;4256449;28;20114;-92
2023/02/17 12:27:56;;;;;;;4.00;3.90;;;12.40;98.10;;;;;;4247000;28;20045;-90